x

Halifax Harbour (44258) Wave Buoy

1:00am - Tue 6th Dec 2016 All times are EST. -5 hours from GMT.

  • Sig Wave height 1.6ft
  • Peak Period 9s
  • Wind
    7mph, 11mph gusts
  • Sea Temp 45°f
  • Air Temp 32°f
  • Sea Pressure 1012.7mb
  • Halifax Harbour
  • Halifax Harbour

More Historic Weather Station data

Upgrade to MSW Pro to gain access to the past 30 days of data for over 8000 Wavebouys and Weather Stations around the globe.

Join Pro

Comparision Forecast

View Surf forecast
   
Tue 12/06 1:00am 1.6ft 9s 7 11 mph 1012.7mb 45f 32f
12:00am 2ft 9s 4 9 mph 1012.8mb 45f 32f
Mon 12/05 11:00pm 1.6ft 10s 4 9 mph 1013.1mb 45f 33f
10:00pm 2ft 9s 2 4 mph 1013.6mb 45f 33f
9:00pm 2ft 9s 2 4 mph 1013.7mb 45f 33f
8:00pm 2ft 8s 4 7 mph 1013.9mb 45f 33f
7:00pm 2.5ft 10s 4 9 mph 1014.2mb 45f 32f
6:00pm 2ft 10s 4 7 mph 1015mb 45f 32f
5:00pm 2.5ft 10s 9 11 mph 1015.2mb 45f 32f
4:00pm 2.5ft 9s 4 9 mph 1015.4mb 45f 32f
3:00pm 2.5ft 9s 7 11 mph 1015.4mb 45f 32f
2:00pm 2.5ft 9s 7 11 mph 1015.3mb 45f 32f
1:00pm 2.5ft 9s 9 13 mph 1015.2mb 45f 31f
12:00pm 2.5ft 10s 9 13 mph 1015.7mb 45f 30f
11:00am 2.5ft 9s 9 13 mph 1016.5mb 45f 30f
10:00am 2.5ft 10s 9 13 mph 1017.5mb 45f 29f
9:00am 2.5ft 10s 11 16 mph 1018.1mb 45f 29f
8:00am 3ft 9s 11 16 mph 1017.9mb 45f 29f
7:00am 3ft 10s 13 16 mph 1017.2mb 45f 29f
6:00am 2.5ft 10s 11 16 mph 1017.4mb 45f 30f
5:00am 3ft 10s 13 18 mph 1017.2mb 45f 30f
4:00am 2.5ft 10s 16 22 mph 1017.2mb 45f 31f
3:00am 3ft 10s 13 18 mph 1017.1mb 45f 31f
2:00am 2.5ft 10s 16 20 mph 1017.2mb 45f 31f
1:00am 3ft 11s 16 20 mph 1017.2mb 45f 31f
12:00am 3ft 10s 18 22 mph 1017.2mb 45f 31f
Sun 12/04 11:00pm 2.5ft 10s 18 25 mph 1017.5mb 45f 32f
10:00pm 2.5ft 10s 16 20 mph 1017.5mb 45f 32f
9:00pm 2.5ft 9s 18 22 mph 1017.2mb 45f 33f
8:00pm 2.5ft 10s 18 22 mph 1016.8mb 46f 33f
7:00pm 3ft 10s 20 25 mph 1016.6mb 46f 33f
6:00pm 2.5ft 10s 22 27 mph 1015.9mb 46f 33f
5:00pm 2.5ft 10s 20 27 mph 1015.5mb 46f 34f
4:00pm 2.5ft 10s 20 25 mph 1014.9mb 46f 35f
3:00pm 2.5ft 10s 22 27 mph 1013.8mb 46f 35f
2:00pm 2.5ft 10s 20 25 mph 1013.1mb 46f 36f
1:00pm 2.5ft 10s 22 27 mph 1012.4mb 46f 35f
12:00pm 2.5ft 10s 22 27 mph 1012.2mb 46f 36f
11:00am 2.5ft 10s 22 27 mph 1012.3mb 46f 35f
10:00am 3ft 10s 22 27 mph 1012.2mb 46f 35f
9:00am 2.5ft 10s 20 25 mph 1012.1mb 46f 35f
8:00am 2.5ft 10s 20 25 mph 1011.7mb 46f 35f
7:00am 2.5ft 9s 18 25 mph 1011.3mb 46f 35f
6:00am 2.5ft 10s 20 25 mph 1010.7mb 46f 36f
5:00am 2.5ft 10s 22 25 mph 1009.8mb 46f 36f
4:00am 2.5ft 10s 22 29 mph 1009.1mb 46f 36f
3:00am 2.5ft 10s 22 27 mph 1008.7mb 46f 37f
2:00am 2.5ft 9s 22 29 mph 1008.4mb 46f 37f
1:00am 2.5ft 8s 20 25 mph 1007.7mb 46f 38f
12:00am 2.5ft 10s 22 27 mph 1006.8mb 46f 38f
Sat 12/03 11:00pm 3ft 9s 25 31 mph 1006.3mb 46f 38f
10:00pm 3ft 9s 22 27 mph 1005.8mb 46f 38f
9:00pm 3.5ft 9s 22 27 mph 1005.4mb 46f 39f
8:00pm 3.5ft 9s 22 29 mph 1004.8mb 46f 39f
7:00pm 3.5ft 8s 22 27 mph 1004.3mb 46f 40f
6:00pm  -   -  20
mph
- - -
5:00pm 2.5ft 10s 22 27 mph 1002.7mb 46f 40f
4:00pm 3ft 9s 22 27 mph 1002.1mb 46f 41f
3:00pm 3.5ft 10s 20 25 mph 1001.5mb 46f 41f
2:00pm 3.5ft 10s 20 25 mph 1000.9mb 46f 41f
1:00pm 3.5ft 9s 18 22 mph 1000.6mb 46f 40f
12:00pm 3.5ft 10s 18 22 mph 1000.5mb 46f 39f
11:00am 4ft 10s 16 22 mph 1000.7mb 46f 38f
10:00am 3.5ft 10s 16 20 mph 1000.8mb 46f 38f
9:00am 4ft 10s 16 20 mph 1001.1mb 46f 37f
8:00am 5ft 10s 16 20 mph 1001mb 46f 36f
7:00am 4ft 10s 16 18 mph 1001.1mb 46f 36f
6:00am 4.5ft 10s 13 18 mph 1001mb 46f 36f
5:00am 4.5ft 10s 11 13 mph 1000.9mb 46f 36f
4:00am 4.5ft 10s 9 13 mph 1001.1mb 46f 36f
3:00am 5ft 10s 9 13 mph 1001.3mb 46f 36f
2:00am 5ft 10s 13 16 mph 1001.6mb 46f 36f
1:00am 5.5ft 11s 13 18 mph 1001.5mb 46f 36f
12:00am 5ft 10s 16 20 mph 1001.4mb 46f 37f
Fri 12/02 11:00pm 6ft 10s 18 22 mph 1001.5mb 46f 38f
10:00pm 6ft 11s 16 20 mph 1001.9mb 46f 38f
9:00pm 6ft 12s 18 25 mph 1001.9mb 46f 38f
8:00pm 6ft 12s 18 20 mph 1002.3mb 46f 38f
7:00pm 6ft 11s 20 22 mph 1002.2mb 46f 39f
6:00pm 6ft 11s 22 27 mph 1001.8mb 46f 40f
5:00pm 6ft 10s 22 25 mph 1001.7mb 46f 40f
4:00pm 6.5ft 10s 20 25 mph 1001.5mb 46f 41f
3:00pm 6.5ft 10s 22 29 mph 1000.9mb 46f 43f
2:00pm 6.5ft 10s 22 29 mph 999.8mb 46f 44f
1:00pm 8.5ft 10s 27 31 mph 999.3mb 46f 43f
12:00pm 7ft 10s 27 31 mph 999.1mb 46f 43f
11:00am 8.5ft 10s 27 31 mph 999mb 46f 42f
10:00am 9ft 10s 25 29 mph 999mb 46f 42f
9:00am 8ft 9s 27 31 mph 999mb 46f 41f
8:00am 7ft 10s 25 31 mph 998.6mb 46f 42f